West Point, KY

1:57 PM EST on February 01, 2015 (GMT -0500)
Godman Army Air Field | Change Station
CLOSE
Current Station
Airport
Location: Fort Knox,
Elevation: 755 ft
Nearby Weather Stations

Elev 755 ft 37.91 °N, 85.97 °W | Updated 12 minutes ago

Rain
Rain
43 °F
Feels Like 35 °F
N
17
Wind Variable Wind from SSE
Gusts 23 mph

Today
High -- | Low -- °F
--% Chance of Precip.
Yesterday
High -- | Low -- °F
Precip. -- in
7:48 AM 6:06 PM
Waxing Gibbous, 96% visible
Pressure 29.72 in
Visibility 6.0 miles
Clouds Overcast 1000 ft
Windchill 35 °F
Dew Point 41 °F
Humidity 93%
Rainfall 0.20 in
Snow Depth Not available.
UV 1 out of 12
Pollen .30 out of 12
Air Quality Not available.
Flu Activity Not available.
SPECI KFTK 011845Z AUTO 16015G20KT 6SM -RA BR OVC010 06/05 A2972 RMK AO2 PRESFR

More Conditions Fewer Conditions

Pressure 29.72 in
Visibility 6.0 miles
Clouds Overcast 1000 ft
Windchill 35 °F
Dew Point 41 °F
Humidity 93%
Rainfall 0.20 in
Snow Depth Not available.
UV 1 out of 12
Pollen .30 out of 12
Air Quality Not available.
Flu Activity Not available.
SPECI KFTK 011845Z AUTO 16015G20KT 6SM -RA BR OVC010 06/05 A2972 RMK AO2 PRESFR

More Conditions Fewer Conditions

10-Day Weather Forecast

Almanac

Astronomy

Feb. 01, 2015 Rise Set
Actual Time
Civil Twilight
Nautical Twilight
Astronomical Twilight
Moon
Length of Visible Light
Length of Day
Tomorrow will be .
, % of the Moon is Illuminated

Today's Extremes

State Highs State Lows

Community

WunderPhotos

Upload Photos

1,792,434 photos uploaded!

WunderBlogs® & News

Nearby

Air Quality

  Air Quality AQ Index Pollutant
Not available.

Snow Depth

Station Depth Elevation

Earthquake Activity

City Distance Mag. Time & Date
Minimum magnitude displayed is 2.5.

Coastal Water Temperatures

Place Temperature

Nearby Weather Stations